ENBL/FDE METAR and TAF weather

Enter ICAO airport designator
Station Type Date Time Source
ENBL METAR 2018/07/21 12:50 UTC NOAA

ENBL 211250Z 25007KT 9999 SCT040 20/10 Q1010


Station Type Date Time Source
ENBL Decoded METAR 2018/07/21 12:50 UTC NOAA

Forde / Bringeland, Norway (ENBL) 61-27N 005-52E
Jul 21, 2018 - 08:50 AM EDT / 2018.07.21 1250 UTC
Wind: from the WSW (250 degrees) at 8 MPH (7 KT):0
Visibility: greater than 7 mile(s):0
Sky conditions: partly cloudy
Temperature: 68 F (20 C)
Dew Point: 50 F (10 C)
Relative Humidity: 52%
Pressure (altimeter): 29.83 in. Hg (1010 hPa)
ob: ENBL 211250Z 25007KT 9999 SCT040 20/10 Q1010
cycle: 13

Station Type Date Time Source
ENBL TAF UTC NOAA

Error!


Example: see airport list